Grosse Pointe Farms, Michigan
Current Conditions -  °F | °C
As of 3:53 AM on Sunday 26 Oct 2014 (Local Time) from KDET Reporting Station
Clear Clear  
Wind Chill: 51°   Ceiling: Unl
Heat Index: 51°   Visibility: 10mi
Dew Point: 31°   Wind: 7mph
Humidity: 46%   Direction: 280°W
Pressure: 29.85"   Gusts: NA
Location:  42.4243°N, 82.8975°W
Report Text: KDET 260753Z 28006KT 10SM CLR 11/M01 A2985 RMK AO2 SLP108 T01061006
Loading
Personal Weather Stations






























Interactive Weather Map
Tropical Storm Tracking
New forecast layout! Learn more

10-Day Weather Forecast

Advertisements
Track Severe Weather on mobile